Time;durP1;ratioP1;P1;durP2;ratioP2;P2;SDS_P1;SDS_P2;PMS_P1;PMS_P2;Temp;Humidity;BMP_temperature;BMP_pressure;BME280_temperature;BME280_humidity;BME280_pressure;Samples;Min_cycle;Max_cycle;Signal;HPM_P1;HPM_P2
2024/02/20 00:00:39;;;;;;;5.60;3.15;;;9.30;69.90;11.10;102578.00;;;;5025665;28;20197;-74
2024/02/20 00:03:06;;;;;;;6.35;2.58;;;9.30;70.00;11.00;102571.00;;;;5011329;28;20259;-74
2024/02/20 00:05:33;;;;;;;8.38;2.83;;;9.20;70.00;11.00;102571.00;;;;5026107;28;20204;-74
2024/02/20 00:08:02;;;;;;;8.50;3.78;;;9.20;69.90;11.00;102570.00;;;;5022051;28;20199;-75
2024/02/20 00:10:30;;;;;;;6.47;2.45;;;9.20;69.90;11.00;102566.00;;;;5010160;28;20224;-75
2024/02/20 00:12:58;;;;;;;7.45;2.88;;;9.20;69.90;11.00;102573.00;;;;5016025;28;20247;-75
2024/02/20 00:15:26;;;;;;;5.68;2.67;;;9.20;70.00;11.00;102571.00;;;;5028859;28;20211;-75
2024/02/20 00:17:53;;;;;;;8.07;2.58;;;9.20;70.00;11.00;102571.00;;;;5031786;28;20235;-75
2024/02/20 00:20:20;;;;;;;6.32;2.03;;;9.20;70.10;11.00;102571.00;;;;5027871;28;20228;-75
2024/02/20 00:22:47;;;;;;;6.80;2.67;;;9.10;70.10;11.00;102571.00;;;;5011116;28;20292;-75
2024/02/20 00:25:15;;;;;;;8.52;2.38;;;9.20;70.20;11.00;102580.00;;;;5024624;28;20294;-75
2024/02/20 00:27:42;;;;;;;7.43;2.83;;;9.10;70.10;11.00;102577.00;;;;5026994;28;20598;-75
2024/02/20 00:30:11;;;;;;;9.00;2.58;;;9.10;70.10;10.90;102585.00;;;;5011563;28;20734;-75
2024/02/20 00:32:39;;;;;;;7.80;2.28;;;9.10;70.10;10.90;102584.00;;;;5029827;28;20200;-75
2024/02/20 00:35:08;;;;;;;7.53;2.15;;;9.10;70.10;10.90;102582.00;;;;5029045;28;20676;-75
2024/02/20 00:37:35;;;;;;;6.53;2.40;;;9.10;70.10;10.90;102582.00;;;;5030084;28;20282;-74
2024/02/20 00:40:03;;;;;;;8.82;2.22;;;9.10;70.10;10.90;102584.00;;;;5006665;28;20276;-75
2024/02/20 00:42:31;;;;;;;4.97;1.67;;;9.10;70.10;10.90;102593.00;;;;5026586;28;20200;-74
2024/02/20 00:45:01;;;;;;;6.13;2.15;;;9.10;70.10;10.90;102587.00;;;;5028555;28;20212;-75
2024/02/20 00:47:28;;;;;;;5.50;1.83;;;9.10;70.10;10.90;102588.00;;;;5031636;28;20231;-75
2024/02/20 00:49:57;;;;;;;6.97;2.35;;;9.10;70.10;10.90;102591.00;;;;5029846;28;20224;-75
2024/02/20 00:52:25;;;;;;;5.60;1.80;;;9.10;70.10;10.90;102598.00;;;;5022773;28;20286;-75
2024/02/20 00:54:52;;;;;;;7.35;2.20;;;9.10;70.90;10.90;102592.00;;;;5020187;28;20688;-75
2024/02/20 00:57:19;;;;;;;5.20;1.48;;;9.10;70.20;10.90;102593.00;;;;5027355;28;20785;-75
2024/02/20 00:59:47;;;;;;;7.70;1.65;;;9.10;70.20;10.90;102586.00;;;;4991899;28;20280;-75
2024/02/20 01:02:14;;;;;;;7.57;2.10;;;9.10;70.20;10.90;102595.00;;;;5005723;28;20635;-75
2024/02/20 01:04:41;;;;;;;4.15;1.70;;;9.10;70.50;10.90;102597.00;;;;5029192;28;20200;-75
2024/02/20 01:07:10;;;;;;;7.40;1.73;;;9.10;70.20;10.90;102585.00;;;;5026580;28;20256;-75
2024/02/20 01:09:37;;;;;;;6.28;2.10;;;9.10;70.10;10.90;102593.00;;;;5010044;28;20232;-74
2024/02/20 01:12:05;;;;;;;3.60;1.63;;;9.00;70.10;10.90;102595.00;;;;5005089;28;20241;-74
2024/02/20 01:14:33;;;;;;;9.93;2.25;;;9.00;70.00;10.90;102600.00;;;;5019438;28;20619;-75
2024/02/20 01:17:00;;;;;;;4.72;1.63;;;9.10;70.20;10.90;102596.00;;;;5031131;28;20200;-75
2024/02/20 01:19:27;;;;;;;3.95;2.15;;;9.10;70.20;10.90;102596.00;;;;5030143;28;20289;-75
2024/02/20 01:21:54;;;;;;;5.10;1.85;;;9.10;70.20;10.90;102584.00;;;;5013244;28;20287;-75
2024/02/20 01:24:23;;;;;;;8.65;2.20;;;9.10;70.20;10.90;102590.00;;;;5017202;28;20205;-75
2024/02/20 01:26:50;;;;;;;4.28;1.27;;;9.10;70.30;10.90;102600.00;;;;5011002;28;20676;-74
2024/02/20 01:29:21;;;;;;;6.47;2.15;;;9.10;70.30;10.90;102587.00;;;;5016885;28;20200;-75
2024/02/20 01:31:49;;;;;;;7.80;1.70;;;9.10;70.30;10.90;102600.00;;;;4995668;28;20201;-75
2024/02/20 01:34:16;;;;;;;5.38;1.88;;;9.10;70.30;10.90;102597.00;;;;5011126;28;20218;-74
2024/02/20 01:36:43;;;;;;;6.53;1.98;;;9.10;70.40;11.00;102596.00;;;;5029098;28;20716;-74
2024/02/20 01:39:10;;;;;;;5.22;1.85;;;9.10;70.40;11.00;102592.00;;;;5010592;28;20701;-75
2024/02/20 01:41:39;;;;;;;7.75;1.33;;;9.10;70.50;11.00;102587.00;;;;5010614;28;20201;-75
2024/02/20 01:44:06;;;;;;;6.93;2.00;;;9.10;70.60;11.00;102587.00;;;;5012296;28;20722;-75
2024/02/20 01:46:34;;;;;;;4.85;1.73;;;9.10;70.60;11.00;102593.00;;;;5022041;28;20233;-75
2024/02/20 01:49:02;;;;;;;4.45;1.90;;;9.20;70.70;11.10;102592.00;;;;5011034;28;20296;-75
2024/02/20 01:51:32;;;;;;;8.98;1.50;;;9.20;70.70;11.10;102588.00;;;;5011185;28;20199;-75
2024/02/20 01:54:00;;;;;;;3.58;1.92;;;9.20;70.70;11.10;102585.00;;;;5011722;28;20204;-74
2024/02/20 01:56:28;;;;;;;3.70;1.52;;;9.30;70.70;11.10;102595.00;;;;5011077;28;20300;-76
2024/02/20 01:58:57;;;;;;;5.85;1.77;;;9.30;70.70;11.10;102592.00;;;;5010976;28;20243;-75
2024/02/20 02:01:25;;;;;;;6.15;1.88;;;9.30;70.60;11.20;102592.00;;;;5027397;28;20683;-75
2024/02/20 02:03:52;;;;;;;7.00;1.67;;;9.30;70.60;11.20;102601.00;;;;5026789;28;20208;-75
2024/02/20 02:06:28;;;;;;;7.22;2.05;;;9.30;70.60;11.10;102598.00;;;;5033927;28;20211;-75
2024/02/20 02:08:56;;;;;;;4.40;1.25;;;9.30;70.60;11.20;102600.00;;;;5030638;28;20226;-75
2024/02/20 02:11:23;;;;;;;8.65;2.08;;;9.40;70.60;11.20;102601.00;;;;5014079;28;20284;-75
2024/02/20 02:13:50;;;;;;;8.98;2.03;;;9.40;70.50;11.30;102605.00;;;;5014539;28;20292;-75
2024/02/20 02:16:19;;;;;;;10.63;1.77;;;9.40;70.50;11.20;102613.00;;;;5032673;28;20279;-75
2024/02/20 02:18:46;;;;;;;9.95;1.77;;;9.40;70.50;11.30;102605.00;;;;5033842;28;20290;-75
2024/02/20 02:21:13;;;;;;;7.25;1.60;;;9.40;70.50;11.30;102608.00;;;;5020201;28;20247;-75
2024/02/20 02:23:40;;;;;;;3.03;1.25;;;9.40;70.50;11.30;102609.00;;;;5012766;28;20204;-75
2024/02/20 02:26:11;;;;;;;5.75;1.83;;;9.40;70.40;11.30;102612.00;;;;5012777;28;20291;-75
2024/02/20 02:28:37;;;;;;;5.72;1.25;;;9.50;70.50;11.30;102614.00;;;;5027129;28;20227;-75
2024/02/20 02:31:17;;;;;;;4.90;1.65;;;9.40;70.30;11.20;102612.00;;;;5034173;28;20211;-75
2024/02/20 02:33:46;;;;;;;4.88;1.02;;;9.50;70.40;11.30;102603.00;;;;5017980;28;20203;-75
2024/02/20 02:36:14;;;;;;;8.88;1.90;;;9.40;70.30;11.30;102605.00;;;;5031782;28;20231;-75
2024/02/20 02:38:41;;;;;;;4.47;1.48;;;9.50;70.40;11.30;102604.00;;;;5015164;28;20197;-75
2024/02/20 02:41:12;;;;;;;5.40;2.03;;;9.50;70.30;11.30;102597.00;;;;5013682;28;20288;-75
2024/02/20 02:43:39;;;;;;;6.70;1.88;;;9.50;70.30;11.30;102597.00;;;;5013864;28;20618;-75
2024/02/20 02:46:06;;;;;;;5.25;1.95;;;9.50;70.30;11.30;102603.00;;;;5029593;28;20287;-75
2024/02/20 02:48:33;;;;;;;3.25;1.00;;;9.50;70.30;11.30;102605.00;;;;5033240;28;20220;-75
2024/02/20 02:51:00;;;;;;;10.43;2.33;;;9.50;70.20;11.30;102603.00;;;;5033792;28;20623;-76
2024/02/20 02:53:27;;;;;;;8.82;1.65;;;9.50;70.30;11.30;102595.00;;;;5019370;28;20749;-75
2024/02/20 02:55:54;;;;;;;6.55;2.13;;;9.50;71.00;11.30;102598.00;;;;5020399;28;20643;-75
2024/02/20 02:58:23;;;;;;;4.18;1.58;;;9.50;70.30;11.30;102593.00;;;;5031651;28;20306;-75
2024/02/20 03:00:50;;;;;;;6.90;1.50;;;9.50;70.30;11.30;102593.00;;;;4997787;28;20254;-75
2024/02/20 03:03:18;;;;;;;7.07;1.52;;;9.50;70.30;11.30;102589.00;;;;5021724;28;20311;-76
2024/02/20 03:05:45;;;;;;;6.13;1.27;;;9.50;70.40;11.30;102588.00;;;;5025619;28;20219;-75
2024/02/20 03:08:12;;;;;;;3.90;1.52;;;9.50;71.00;11.30;102580.00;;;;5033147;28;20323;-75
2024/02/20 03:10:39;;;;;;;6.05;1.60;;;9.50;70.30;11.40;102592.00;;;;5032295;28;20299;-75
2024/02/20 03:13:06;;;;;;;3.20;1.02;;;9.50;70.30;11.40;102593.00;;;;5022303;28;20193;-75
2024/02/20 03:15:35;;;;;;;6.72;1.42;;;9.50;70.30;11.30;102592.00;;;;5012356;28;20310;-75
2024/02/20 03:18:02;;;;;;;3.97;1.58;;;9.50;70.30;11.40;102590.00;;;;5031754;28;20292;-75
2024/02/20 03:20:29;;;;;;;8.50;1.50;;;9.50;70.20;11.40;102591.00;;;;5033227;28;20278;-75
2024/02/20 03:22:56;;;;;;;4.85;1.25;;;9.50;70.30;11.40;102585.00;;;;5022415;28;20255;-75
2024/02/20 03:25:24;;;;;;;6.97;2.20;;;9.50;70.30;11.40;102599.00;;;;5021013;28;20287;-75
2024/02/20 03:27:51;;;;;;;4.82;1.27;;;9.50;70.30;11.40;102588.00;;;;5029617;28;20235;-75
2024/02/20 03:30:18;;;;;;;3.75;1.20;;;9.50;70.30;11.40;102592.00;;;;5022731;28;20262;-75
2024/02/20 03:32:47;;;;;;;3.50;1.20;;;9.50;70.30;11.40;102591.00;;;;5028579;28;20193;-75
2024/02/20 03:35:20;;;;;;;3.65;1.30;;;9.60;70.40;11.40;102580.00;;;;5022550;28;20279;-75
2024/02/20 03:37:49;;;;;;;6.18;1.67;;;9.50;70.40;11.40;102583.00;;;;5012755;28;20201;-75
2024/02/20 03:40:17;;;;;;;4.82;1.60;;;9.50;70.40;11.40;102578.00;;;;5022873;28;20622;-75
2024/02/20 03:42:44;;;;;;;4.95;1.27;;;9.60;70.50;11.40;102574.00;;;;5013361;28;20288;-75
2024/02/20 03:45:12;;;;;;;7.70;2.30;;;9.60;70.50;11.50;102577.00;;;;5018487;28;20200;-75
2024/02/20 03:47:39;;;;;;;4.28;1.30;;;9.60;70.40;11.50;102575.00;;;;5017872;28;20316;-75
2024/02/20 03:50:09;;;;;;;6.55;2.13;;;9.60;70.40;11.40;102576.00;;;;5014207;28;20293;-75
2024/02/20 03:52:36;;;;;;;5.80;1.40;;;9.60;70.40;11.50;102580.00;;;;5012119;28;20276;-75
2024/02/20 03:55:05;;;;;;;4.88;1.70;;;9.60;70.40;11.50;102576.00;;;;5015469;28;20287;-75
2024/02/20 03:57:32;;;;;;;4.63;1.38;;;9.60;70.40;11.50;102572.00;;;;5015802;28;20693;-76
2024/02/20 03:59:59;;;;;;;4.47;1.50;;;9.60;70.40;11.50;102567.00;;;;5032318;28;20293;-75
2024/02/20 04:02:26;;;;;;;5.28;1.40;;;9.60;70.40;11.50;102566.00;;;;5023975;28;20252;-75
2024/02/20 04:04:54;;;;;;;4.82;1.50;;;9.60;70.40;11.50;102571.00;;;;5015358;28;20200;-76
2024/02/20 04:07:22;;;;;;;6.72;2.28;;;9.60;70.40;11.50;102564.00;;;;4992595;28;20296;-76
2024/02/20 04:09:49;;;;;;;4.35;2.30;;;9.60;70.40;11.50;102567.00;;;;4992690;28;20201;-75
2024/02/20 04:12:16;;;;;;;6.70;1.90;;;9.60;70.40;11.50;102563.00;;;;4992744;28;20285;-75
2024/02/20 04:14:44;;;;;;;3.65;1.88;;;9.60;70.30;11.50;102564.00;;;;5003990;28;20620;-75
2024/02/20 04:17:11;;;;;;;3.90;1.40;;;9.70;71.10;11.60;102558.00;;;;5011831;28;20220;-75
2024/02/20 04:19:39;;;;;;;4.78;2.10;;;9.70;70.30;11.50;102559.00;;;;5012281;28;20638;-75
2024/02/20 04:22:06;;;;;;;4.80;2.35;;;9.70;70.30;11.60;102563.00;;;;5012247;28;20583;-76
2024/02/20 04:24:34;;;;;;;7.13;2.15;;;9.70;70.20;11.50;102561.00;;;;5015796;28;20189;-75
2024/02/20 04:27:02;;;;;;;6.80;1.33;;;9.70;70.40;11.60;102567.00;;;;5031557;28;20283;-75
2024/02/20 04:29:29;;;;;;;6.32;1.83;;;9.70;70.30;11.50;102566.00;;;;5031669;28;20287;-75
2024/02/20 04:31:56;;;;;;;6.35;1.75;;;9.70;70.30;11.60;102571.00;;;;5031531;28;20231;-75
2024/02/20 04:34:23;;;;;;;5.13;1.80;;;9.70;70.30;11.50;102571.00;;;;5020789;28;20208;-75
2024/02/20 04:36:50;;;;;;;4.88;1.75;;;9.70;70.30;11.60;102564.00;;;;5003590;28;20553;-75
2024/02/20 04:39:18;;;;;;;6.65;1.65;;;9.70;70.20;11.50;102565.00;;;;5021262;28;20209;-75
2024/02/20 04:41:46;;;;;;;6.03;1.50;;;9.60;70.10;11.50;102570.00;;;;5017983;28;20274;-75
2024/02/20 04:44:13;;;;;;;5.05;1.52;;;9.70;70.20;11.50;102577.00;;;;5024890;28;20284;-75
2024/02/20 04:46:40;;;;;;;5.05;1.45;;;9.60;70.10;11.50;102581.00;;;;5010894;28;20224;-76
2024/02/20 04:49:07;;;;;;;8.15;2.30;;;9.60;70.10;11.50;102578.00;;;;5011111;28;20304;-75
2024/02/20 04:51:36;;;;;;;4.55;1.83;;;9.70;70.20;11.50;102567.00;;;;5017586;28;20283;-75
2024/02/20 04:54:03;;;;;;;5.03;1.60;;;9.70;70.20;11.50;102574.00;;;;5018174;28;20203;-75
2024/02/20 04:56:31;;;;;;;6.65;1.63;;;9.60;70.10;11.50;102578.00;;;;5022040;28;20227;-74
2024/02/20 04:58:59;;;;;;;5.93;1.90;;;9.60;70.20;11.50;102570.00;;;;5031511;28;20208;-75
2024/02/20 05:01:26;;;;;;;6.00;1.52;;;9.60;70.30;11.50;102567.00;;;;5026271;28;20681;-75
2024/02/20 05:03:53;;;;;;;5.00;1.52;;;9.70;70.30;11.50;102569.00;;;;5015909;28;20197;-75
2024/02/20 05:06:20;;;;;;;6.32;2.00;;;9.60;70.30;11.50;102562.00;;;;5012150;28;20283;-75
2024/02/20 05:08:48;;;;;;;5.80;1.45;;;9.60;70.30;11.50;102549.00;;;;5010932;28;20706;-75
2024/02/20 05:11:15;;;;;;;5.32;1.70;;;9.70;70.30;11.50;102553.00;;;;5012444;28;20283;-75
2024/02/20 05:13:42;;;;;;;10.27;2.38;;;9.60;70.30;11.50;102560.00;;;;5016014;28;20226;-75
2024/02/20 05:16:10;;;;;;;5.22;1.63;;;9.60;70.30;11.50;102558.00;;;;5025159;28;20223;-75
2024/02/20 05:18:37;;;;;;;6.28;2.33;;;9.60;70.30;11.50;102566.00;;;;5029044;28;20287;-75
2024/02/20 05:21:06;;;;;;;6.85;1.98;;;9.60;70.30;11.50;102561.00;;;;5025138;28;20196;-75
2024/02/20 05:23:33;;;;;;;4.45;2.03;;;9.60;70.30;11.50;102558.00;;;;5029402;28;20207;-75
2024/02/20 05:26:00;;;;;;;5.50;2.50;;;9.60;70.30;11.50;102558.00;;;;5025556;28;20279;-76
2024/02/20 05:28:28;;;;;;;5.68;2.22;;;9.70;70.40;11.60;102562.00;;;;5012553;28;20231;-74
2024/02/20 05:30:56;;;;;;;12.18;1.58;;;9.70;70.50;11.50;102562.00;;;;5010610;28;20650;-75
2024/02/20 05:33:25;;;;;;;4.97;1.60;;;9.70;70.50;11.60;102569.00;;;;5011166;28;20201;-75
2024/02/20 05:35:52;;;;;;;6.43;1.90;;;9.70;70.50;11.60;102569.00;;;;5011022;28;20193;-76
2024/02/20 05:38:19;;;;;;;6.10;2.35;;;9.70;71.20;11.60;102568.00;;;;5030947;28;20291;-75
2024/02/20 05:40:48;;;;;;;4.93;1.95;;;9.70;70.50;11.60;102566.00;;;;5033708;28;20196;-75
2024/02/20 05:43:15;;;;;;;4.75;1.67;;;9.70;70.50;11.60;102554.00;;;;5034511;28;20193;-75
2024/02/20 05:45:43;;;;;;;3.45;1.83;;;9.70;70.50;11.60;102554.00;;;;5016696;28;20283;-75
2024/02/20 05:48:12;;;;;;;4.07;2.17;;;9.70;70.50;11.60;102549.00;;;;5016467;28;20702;-75
2024/02/20 05:50:40;;;;;;;5.40;1.77;;;9.70;70.50;11.60;102540.00;;;;5021462;28;20654;-76
2024/02/20 05:53:09;;;;;;;7.38;2.05;;;9.70;70.50;11.60;102533.00;;;;5034910;28;20208;-75
2024/02/20 05:55:36;;;;;;;3.65;1.83;;;9.80;70.50;11.60;102540.00;;;;5012545;28;20313;-75
2024/02/20 05:58:04;;;;;;;4.30;1.83;;;9.80;70.50;11.60;102547.00;;;;4995106;28;20221;-75
2024/02/20 06:00:31;;;;;;;8.75;2.35;;;9.80;70.50;11.60;102547.00;;;;5021079;28;20588;-75
2024/02/20 06:02:58;;;;;;;3.42;1.65;;;9.80;70.40;11.60;102557.00;;;;5019322;28;20248;-76
2024/02/20 06:05:25;;;;;;;4.20;1.80;;;9.80;70.40;11.60;102555.00;;;;5016400;28;20662;-75
2024/02/20 06:07:53;;;;;;;5.50;2.00;;;9.80;70.40;11.60;102561.00;;;;5032681;28;20307;-75
2024/02/20 06:10:20;;;;;;;8.90;2.47;;;9.80;70.30;11.60;102568.00;;;;5026676;28;20616;-75
2024/02/20 06:12:47;;;;;;;4.22;2.40;;;9.80;70.30;11.60;102571.00;;;;5022224;28;20275;-75
2024/02/20 06:15:15;;;;;;;7.20;2.30;;;9.80;70.30;11.60;102568.00;;;;5028484;28;20234;-74
2024/02/20 06:17:43;;;;;;;4.68;1.65;;;9.70;70.20;11.60;102561.00;;;;5015400;28;20200;-75
2024/02/20 06:20:11;;;;;;;7.13;2.25;;;9.70;70.20;11.60;102553.00;;;;5014256;28;20277;-75
2024/02/20 06:22:38;;;;;;;4.45;1.95;;;9.70;70.20;11.50;102548.00;;;;5020856;28;20633;-75
2024/02/20 06:25:08;;;;;;;4.60;2.10;;;9.70;70.20;11.50;102548.00;;;;5026077;28;20189;-75
2024/02/20 06:27:38;;;;;;;5.20;2.22;;;9.70;70.20;11.50;102558.00;;;;5018750;28;20295;-75
2024/02/20 06:30:11;;;;;;;6.97;2.53;;;9.70;70.20;11.50;102565.00;;;;5028410;28;20209;-75
2024/02/20 06:32:39;;;;;;;5.13;2.65;;;9.70;70.20;11.50;102553.00;;;;5013748;28;20591;-75
2024/02/20 06:35:09;;;;;;;7.57;3.28;;;9.60;70.10;11.50;102554.00;;;;5020339;28;20674;-74
2024/02/20 06:37:36;;;;;;;7.07;2.10;;;9.60;70.10;11.50;102558.00;;;;5020384;28;20208;-75
2024/02/20 06:40:04;;;;;;;7.03;2.10;;;9.60;70.10;11.40;102552.00;;;;5004716;28;20745;-75
2024/02/20 06:42:32;;;;;;;6.13;1.98;;;9.60;70.20;11.40;102555.00;;;;5011851;28;20231;-74
2024/02/20 06:45:00;;;;;;;6.28;2.70;;;9.60;70.10;11.40;102556.00;;;;5011262;28;20626;-75
2024/02/20 06:47:27;;;;;;;5.60;2.03;;;9.60;70.10;11.40;102561.00;;;;5011870;28;20200;-75
2024/02/20 06:49:54;;;;;;;6.90;2.85;;;9.60;70.20;11.40;102567.00;;;;5013009;28;20220;-75
2024/02/20 06:52:22;;;;;;;5.25;2.15;;;9.50;70.10;11.40;102568.00;;;;5009994;28;21086;-75
2024/02/20 06:54:52;;;;;;;5.63;2.25;;;9.60;70.20;11.30;102569.00;;;;5011082;28;20654;-75
2024/02/20 06:57:20;;;;;;;4.13;2.17;;;9.50;70.20;11.30;102564.00;;;;5012714;28;20247;-75
2024/02/20 06:59:48;;;;;;;7.30;2.17;;;9.50;70.20;11.30;102563.00;;;;5009843;28;20689;-75
2024/02/20 07:02:15;;;;;;;10.82;2.92;;;9.50;71.00;11.30;102564.00;;;;5011878;28;20608;-75
2024/02/20 07:04:43;;;;;;;7.70;2.90;;;9.50;70.60;11.30;102554.00;;;;5003025;28;20296;-75
2024/02/20 07:07:12;;;;;;;6.85;2.55;;;9.50;70.60;11.30;102552.00;;;;5000795;28;20193;-75
2024/02/20 07:09:40;;;;;;;7.13;2.30;;;9.50;70.80;11.40;102559.00;;;;5013370;28;20264;-75
2024/02/20 07:12:09;;;;;;;9.23;2.28;;;9.50;70.80;11.40;102557.00;;;;5012348;28;20263;-74
2024/02/20 07:14:37;;;;;;;10.40;2.20;;;9.60;70.90;11.40;102559.00;;;;5003172;28;20206;-75
2024/02/20 07:17:06;;;;;;;6.65;1.90;;;9.50;70.90;11.40;102564.00;;;;5010875;28;20197;-75
2024/02/20 07:19:33;;;;;;;6.47;2.30;;;9.60;71.00;11.40;102563.00;;;;5012788;28;20534;-75
2024/02/20 07:22:00;;;;;;;7.15;2.63;;;9.60;71.00;11.40;102566.00;;;;5012345;28;20201;-75
2024/02/20 07:24:28;;;;;;;5.97;2.90;;;9.60;71.10;11.50;102566.00;;;;5007988;28;20280;-74
2024/02/20 07:26:56;;;;;;;7.38;2.50;;;9.60;71.10;11.50;102563.00;;;;5015110;28;20197;-75
2024/02/20 07:29:23;;;;;;;7.15;3.05;;;9.70;71.20;11.50;102561.00;;;;5012338;28;20303;-75
2024/02/20 07:31:50;;;;;;;5.28;2.42;;;9.70;71.20;11.50;102559.00;;;;5011156;28;20197;-74
2024/02/20 07:34:20;;;;;;;7.00;2.45;;;9.70;71.30;11.60;102565.00;;;;5011787;28;20303;-75
2024/02/20 07:36:48;;;;;;;7.93;2.38;;;9.80;71.40;11.60;102559.00;;;;5002336;28;20284;-75
2024/02/20 07:39:15;;;;;;;8.00;2.58;;;9.80;71.40;11.70;102557.00;;;;5012848;28;20286;-75
2024/02/20 07:41:43;;;;;;;6.30;2.80;;;9.80;71.40;11.70;102565.00;;;;5012646;28;20292;-75
2024/02/20 07:44:10;;;;;;;8.57;2.70;;;9.80;71.40;11.70;102563.00;;;;5013387;28;20232;-75
2024/02/20 07:46:38;;;;;;;6.72;2.70;;;9.90;71.50;11.80;102573.00;;;;4996398;28;20295;-75
2024/02/20 07:49:05;;;;;;;4.68;2.35;;;9.90;71.50;11.80;102573.00;;;;5004315;28;20311;-75
2024/02/20 07:51:35;;;;;;;4.45;2.00;;;9.90;71.50;11.80;102569.00;;;;5005694;28;20632;-75
2024/02/20 07:54:07;;;;;;;6.15;2.05;;;10.00;71.50;11.90;102561.00;;;;5005851;28;20631;-74
2024/02/20 07:56:39;;;;;;;6.40;2.97;;;10.00;71.50;11.90;102557.00;;;;5003835;28;20240;-75
2024/02/20 07:59:10;;;;;;;9.00;2.88;;;10.10;71.60;11.90;102555.00;;;;5006119;28;20288;-75
2024/02/20 08:01:38;;;;;;;8.77;2.92;;;10.10;71.60;12.00;102560.00;;;;5012240;28;20228;-74
2024/02/20 08:04:05;;;;;;;8.13;3.65;;;10.10;71.60;12.00;102556.00;;;;5002703;28;20209;-75
2024/02/20 08:06:36;;;;;;;8.80;2.75;;;10.20;71.70;12.00;102548.00;;;;5003895;28;20189;-74
2024/02/20 08:09:03;;;;;;;8.38;2.28;;;10.20;71.70;12.10;102549.00;;;;5008348;28;20320;-75
2024/02/20 08:11:34;;;;;;;8.38;2.15;;;10.30;71.80;12.20;102554.00;;;;5010271;28;20239;-74
2024/02/20 08:14:03;;;;;;;7.53;2.80;;;10.30;71.80;12.20;102551.00;;;;5011434;28;20216;-75
2024/02/20 08:16:36;;;;;;;9.30;3.30;;;10.40;71.90;12.30;102556.00;;;;5009231;28;20247;-73
2024/02/20 08:19:04;;;;;;;6.07;2.45;;;10.40;71.90;12.40;102566.00;;;;5009168;28;20193;-73
2024/02/20 08:21:32;;;;;;;4.88;2.15;;;10.50;72.00;12.40;102561.00;;;;5001542;28;20207;-73
2024/02/20 08:24:01;;;;;;;6.13;2.67;;;10.50;72.00;12.50;102563.00;;;;5005817;28;20681;-74
2024/02/20 08:26:28;;;;;;;6.93;3.22;;;10.60;72.00;12.50;102559.00;;;;5004477;28;20215;-73
2024/02/20 08:28:56;;;;;;;5.90;2.25;;;10.70;72.20;12.60;102557.00;;;;5006527;28;20332;-75
2024/02/20 08:31:23;;;;;;;8.10;2.85;;;10.70;72.20;12.70;102565.00;;;;5006228;28;20280;-75
2024/02/20 08:33:51;;;;;;;8.82;2.75;;;10.80;72.20;12.70;102568.00;;;;5005782;28;20193;-75
2024/02/20 08:36:18;;;;;;;8.82;2.90;;;10.80;72.30;12.80;102565.00;;;;5017812;28;20189;-76
2024/02/20 08:38:46;;;;;;;10.10;2.95;;;10.90;72.40;12.90;102571.00;;;;5011163;28;20779;-75
2024/02/20 08:41:15;;;;;;;5.55;2.28;;;11.00;72.50;13.00;102566.00;;;;4993759;28;20722;-75
2024/02/20 08:43:46;;;;;;;11.85;2.72;;;11.10;72.60;13.10;102571.00;;;;5009955;28;20288;-75
2024/02/20 08:46:13;;;;;;;6.22;2.80;;;11.20;72.60;13.20;102567.00;;;;5009883;28;20207;-75
2024/02/20 08:48:40;;;;;;;6.88;2.47;;;11.20;72.60;13.20;102575.00;;;;5010775;28;20311;-75
2024/02/20 08:51:07;;;;;;;8.65;2.28;;;11.30;72.60;13.20;102568.00;;;;5004816;28;20201;-75
2024/02/20 08:53:35;;;;;;;11.00;2.58;;;11.40;72.60;13.30;102566.00;;;;5010342;28;20287;-75
2024/02/20 08:56:02;;;;;;;8.40;2.65;;;11.40;72.50;13.40;102567.00;;;;5009459;28;20236;-75
2024/02/20 08:58:30;;;;;;;8.73;3.35;;;11.50;72.40;13.40;102562.00;;;;5009232;28;20275;-75
2024/02/20 09:01:00;;;;;;;10.30;2.92;;;11.60;72.50;13.40;102564.00;;;;5009895;28;20323;-75
2024/02/20 09:03:29;;;;;;;10.02;2.40;;;11.60;72.50;13.50;102571.00;;;;5009672;28;20263;-75
2024/02/20 09:05:56;;;;;;;6.53;2.70;;;11.70;72.40;13.50;102571.00;;;;5011194;28;20804;-76
2024/02/20 09:08:24;;;;;;;9.95;2.88;;;11.70;72.30;13.60;102568.00;;;;5006775;28;20285;-76
2024/02/20 09:10:51;;;;;;;9.32;2.10;;;11.80;72.30;13.60;102570.00;;;;5013283;28;20848;-76
2024/02/20 09:13:18;;;;;;;11.57;3.30;;;11.90;72.30;13.70;102573.00;;;;5014936;28;20288;-75
2024/02/20 09:15:47;;;;;;;7.40;2.38;;;11.90;72.20;13.70;102582.00;;;;5013960;28;20189;-75
2024/02/20 09:18:14;;;;;;;8.80;2.83;;;11.90;72.10;13.80;102582.00;;;;5014883;28;20567;-75
2024/02/20 09:20:41;;;;;;;7.97;2.25;;;12.00;72.10;13.80;102563.00;;;;5013027;28;20275;-75
2024/02/20 09:23:09;;;;;;;10.23;2.22;;;12.00;72.10;13.80;102563.00;;;;5015376;28;20209;-75
2024/02/20 09:25:36;;;;;;;7.78;2.40;;;12.10;72.20;13.90;102563.00;;;;5020320;28;20204;-75
2024/02/20 09:28:03;;;;;;;6.75;2.53;;;12.10;72.20;14.00;102578.00;;;;5014852;28;20288;-75
2024/02/20 09:30:30;;;;;;;8.70;2.35;;;12.20;72.20;14.00;102573.00;;;;5014107;28;20328;-75
2024/02/20 09:32:58;;;;;;;8.52;2.42;;;12.20;72.10;14.10;102563.00;;;;5014230;28;20189;-74
2024/02/20 09:35:25;;;;;;;8.70;2.30;;;12.30;72.20;14.20;102556.00;;;;5013372;28;20808;-75
2024/02/20 09:37:52;;;;;;;13.45;3.25;;;12.30;72.10;14.20;102562.00;;;;5013967;28;20196;-75
2024/02/20 09:40:20;;;;;;;15.45;3.45;;;12.40;72.10;14.30;102568.00;;;;5014857;28;20737;-73
2024/02/20 09:42:50;;;;;;;11.57;3.38;;;12.50;72.10;14.40;102559.00;;;;5014831;28;20442;-73
2024/02/20 09:45:19;;;;;;;10.32;2.55;;;12.50;72.10;14.40;102556.00;;;;5012931;28;20271;-74
2024/02/20 09:47:48;;;;;;;10.30;2.85;;;12.60;72.80;14.50;102547.00;;;;5009472;28;20203;-74
2024/02/20 09:50:18;;;;;;;9.52;2.75;;;12.60;72.00;14.60;102544.00;;;;5001540;28;20225;-74
2024/02/20 09:52:51;;;;;;;12.77;3.08;;;12.70;72.00;14.60;102546.00;;;;4999678;28;20240;-74
2024/02/20 09:55:19;;;;;;;12.70;3.05;;;12.80;72.10;14.80;102541.00;;;;5012759;28;20722;-74
2024/02/20 09:57:50;;;;;;;8.43;2.47;;;12.90;72.20;14.80;102548.00;;;;5016496;28;20220;-74
2024/02/20 10:00:19;;;;;;;11.55;3.72;;;13.00;72.10;14.90;102558.00;;;;5009633;28;20199;-75
2024/02/20 10:02:47;;;;;;;13.02;3.50;;;13.00;72.00;15.00;102553.00;;;;5010746;28;20308;-75
2024/02/20 10:05:17;;;;;;;11.75;3.47;;;13.10;72.00;15.00;102547.00;;;;5015010;28;20188;-74
2024/02/20 10:07:44;;;;;;;10.20;2.28;;;13.20;71.90;15.10;102551.00;;;;5011100;28;20276;-74
2024/02/20 10:10:15;;;;;;;11.00;2.33;;;13.30;71.90;15.20;102548.00;;;;5012105;28;20355;-74
2024/02/20 10:12:44;;;;;;;14.90;4.20;;;13.30;71.80;15.20;102540.00;;;;5010891;28;20678;-74
2024/02/20 10:15:13;;;;;;;9.63;2.72;;;13.40;71.70;15.30;102545.00;;;;5012704;28;20568;-74
2024/02/20 10:17:41;;;;;;;8.25;3.05;;;13.50;71.60;15.40;102548.00;;;;5012442;28;20208;-74
2024/02/20 10:20:11;;;;;;;10.65;3.42;;;13.50;71.60;15.40;102542.00;;;;5011054;28;20208;-75
2024/02/20 10:22:42;;;;;;;12.07;2.95;;;13.50;71.30;15.40;102547.00;;;;5006819;28;20300;-74
2024/02/20 10:25:12;;;;;;;8.75;2.92;;;13.60;71.30;15.50;102543.00;;;;5008794;28;20273;-74
2024/02/20 10:27:39;;;;;;;11.45;2.90;;;13.70;71.20;15.50;102544.00;;;;5004911;28;20284;-74
2024/02/20 10:30:08;;;;;;;11.05;2.97;;;13.70;71.10;15.50;102541.00;;;;5006123;28;20231;-74
2024/02/20 10:32:37;;;;;;;13.00;3.30;;;13.80;71.10;15.60;102538.00;;;;5006605;28;20283;-76
2024/02/20 10:35:09;;;;;;;10.48;3.17;;;13.80;71.00;15.60;102541.00;;;;5005596;28;20276;-74
2024/02/20 10:37:37;;;;;;;9.65;2.80;;;13.90;70.90;15.60;102542.00;;;;5008503;28;20506;-74
2024/02/20 10:40:08;;;;;;;15.02;3.20;;;13.90;70.70;15.60;102540.00;;;;5017631;28;20232;-74
2024/02/20 10:42:37;;;;;;;9.10;2.28;;;13.90;70.60;15.70;102532.00;;;;5008303;28;20659;-74
2024/02/20 10:45:08;;;;;;;11.02;2.72;;;14.00;70.50;15.70;102521.00;;;;5010346;28;20251;-74
2024/02/20 10:47:40;;;;;;;11.93;3.08;;;14.00;70.20;15.70;102526.00;;;;5010086;28;20514;-74
2024/02/20 10:50:10;;;;;;;8.80;2.30;;;14.00;70.10;15.80;102523.00;;;;5009595;28;20307;-74
2024/02/20 10:52:37;;;;;;;12.77;2.80;;;14.10;70.10;15.80;102520.00;;;;5009963;28;20243;-74
2024/02/20 10:55:08;;;;;;;10.13;3.38;;;14.10;70.10;15.80;102517.00;;;;5009472;28;20197;-74